sensor_id;sensor_type;location;lat;lon;timestamp;P1;P4;P2;P0;N10;N4;N25;N1;N05;TS
40102;SPS30;25814;48.550;9.108;2023-06-10T00:00:42;0.00;0.00;0.00;0.00;0.00;0.00;0.00;0.00;0.00;1.50
40102;SPS30;25814;48.550;9.108;2023-06-10T00:03:09;0.00;0.00;0.00;0.00;0.00;0.00;0.00;0.00;0.00;1.50
40102;SPS30;25814;48.550;9.108;2023-06-10T00:05:36;0.00;0.00;0.00;0.00;0.00;0.00;0.00;0.00;0.00;1.50
40102;SPS30;25814;48.550;9.108;2023-06-10T00:08:04;0.00;0.00;0.00;0.00;0.00;0.00;0.00;0.00;0.00;1.50
40102;SPS30;25814;48.550;9.108;2023-06-10T00:10:34;0.00;0.00;0.00;0.00;0.00;0.00;0.00;0.00;0.00;1.50
40102;SPS30;25814;48.550;9.108;2023-06-10T00:13:06;0.00;0.00;0.00;0.00;0.00;0.00;0.00;0.00;0.00;1.50
40102;SPS30;25814;48.550;9.108;2023-06-10T00:15:36;0.00;0.00;0.00;0.00;0.00;0.00;0.00;0.00;0.00;1.50
40102;SPS30;25814;48.550;9.108;2023-06-10T00:18:03;0.00;0.00;0.00;0.00;0.00;0.00;0.00;0.00;0.00;1.50
40102;SPS30;25814;48.550;9.108;2023-06-10T00:20:30;0.00;0.00;0.00;0.00;0.00;0.00;0.00;0.00;0.00;1.50
40102;SPS30;25814;48.550;9.108;2023-06-10T00:22:58;0.00;0.00;0.00;0.00;0.00;0.00;0.00;0.00;0.00;1.50
40102;SPS30;25814;48.550;9.108;2023-06-10T00:25:27;0.00;0.00;0.00;0.00;0.00;0.00;0.00;0.00;0.00;1.50
40102;SPS30;25814;48.550;9.108;2023-06-10T00:27:53;0.00;0.00;0.00;0.00;0.00;0.00;0.00;0.00;0.00;1.50
40102;SPS30;25814;48.550;9.108;2023-06-10T00:30:19;0.00;0.00;0.00;0.00;0.00;0.00;0.00;0.00;0.00;1.50
40102;SPS30;25814;48.550;9.108;2023-06-10T00:32:46;0.00;0.00;0.00;0.00;0.00;0.00;0.00;0.00;0.00;1.50
40102;SPS30;25814;48.550;9.108;2023-06-10T00:35:12;0.00;0.00;0.00;0.00;0.00;0.00;0.00;0.00;0.00;1.50
40102;SPS30;25814;48.550;9.108;2023-06-10T00:37:38;0.00;0.00;0.00;0.00;0.00;0.00;0.00;0.00;0.00;1.50
40102;SPS30;25814;48.550;9.108;2023-06-10T00:40:05;0.00;0.00;0.00;0.00;0.00;0.00;0.00;0.00;0.00;1.50
40102;SPS30;25814;48.550;9.108;2023-06-10T00:42:34;0.00;0.00;0.00;0.00;0.00;0.00;0.00;0.00;0.00;1.50
40102;SPS30;25814;48.550;9.108;2023-06-10T00:45:00;0.00;0.00;0.00;0.00;0.00;0.00;0.00;0.00;0.00;1.50
40102;SPS30;25814;48.550;9.108;2023-06-10T00:47:27;0.00;0.00;0.00;0.00;0.00;0.00;0.00;0.00;0.00;1.50
40102;SPS30;25814;48.550;9.108;2023-06-10T00:49:54;0.00;0.00;0.00;0.00;0.00;0.00;0.00;0.00;0.00;1.50
40102;SPS30;25814;48.550;9.108;2023-06-10T00:52:20;0.00;0.00;0.00;0.00;0.00;0.00;0.00;0.00;0.00;1.50
40102;SPS30;25814;48.550;9.108;2023-06-10T00:54:52;0.00;0.00;0.00;0.00;0.00;0.00;0.00;0.00;0.00;1.50
40102;SPS30;25814;48.550;9.108;2023-06-10T00:57:18;0.00;0.00;0.00;0.00;0.00;0.00;0.00;0.00;0.00;1.50
40102;SPS30;25814;48.550;9.108;2023-06-10T00:59:47;0.00;0.00;0.00;0.00;0.00;0.00;0.00;0.00;0.00;1.50
40102;SPS30;25814;48.550;9.108;2023-06-10T01:02:15;0.00;0.00;0.00;0.00;0.00;0.00;0.00;0.00;0.00;1.50
40102;SPS30;25814;48.550;9.108;2023-06-10T01:04:41;0.00;0.00;0.00;0.00;0.00;0.00;0.00;0.00;0.00;1.50
40102;SPS30;25814;48.550;9.108;2023-06-10T01:15:16;0.00;0.00;0.00;0.00;0.00;0.00;0.00;0.00;0.00;1.50
40102;SPS30;25814;48.550;9.108;2023-06-10T01:17:56;0.00;0.00;0.00;0.00;0.00;0.00;0.00;0.00;0.00;1.50
40102;SPS30;25814;48.550;9.108;2023-06-10T01:20:34;0.00;0.00;0.00;0.00;0.00;0.00;0.00;0.00;0.00;1.50
40102;SPS30;25814;48.550;9.108;2023-06-10T01:23:05;0.00;0.00;0.00;0.00;0.00;0.00;0.00;0.00;0.00;1.50
40102;SPS30;25814;48.550;9.108;2023-06-10T01:25:33;0.00;0.00;0.00;0.00;0.00;0.00;0.00;0.00;0.00;1.50
40102;SPS30;25814;48.550;9.108;2023-06-10T01:30:39;0.00;0.00;0.00;0.00;0.00;0.00;0.00;0.00;0.00;1.50
40102;SPS30;25814;48.550;9.108;2023-06-10T01:33:17;0.00;0.00;0.00;0.00;0.00;0.00;0.00;0.00;0.00;1.50
40102;SPS30;25814;48.550;9.108;2023-06-10T01:35:54;0.00;0.00;0.00;0.00;0.00;0.00;0.00;0.00;0.00;1.50
40102;SPS30;25814;48.550;9.108;2023-06-10T01:38:27;0.00;0.00;0.00;0.00;0.00;0.00;0.00;0.00;0.00;1.50
40102;SPS30;25814;48.550;9.108;2023-06-10T01:41:09;0.00;0.00;0.00;0.00;0.00;0.00;0.00;0.00;0.00;1.50
40102;SPS30;25814;48.550;9.108;2023-06-10T01:43:39;0.00;0.00;0.00;0.00;0.00;0.00;0.00;0.00;0.00;1.50
40102;SPS30;25814;48.550;9.108;2023-06-10T01:46:06;0.00;0.00;0.00;0.00;0.00;0.00;0.00;0.00;0.00;1.50
40102;SPS30;25814;48.550;9.108;2023-06-10T01:48:32;0.00;0.00;0.00;0.00;0.00;0.00;0.00;0.00;0.00;1.50
40102;SPS30;25814;48.550;9.108;2023-06-10T01:50:58;0.00;0.00;0.00;0.00;0.00;0.00;0.00;0.00;0.00;1.50
40102;SPS30;25814;48.550;9.108;2023-06-10T01:53:25;0.00;0.00;0.00;0.00;0.00;0.00;0.00;0.00;0.00;1.50
40102;SPS30;25814;48.550;9.108;2023-06-10T01:55:51;0.00;0.00;0.00;0.00;0.00;0.00;0.00;0.00;0.00;1.50
40102;SPS30;25814;48.550;9.108;2023-06-10T01:58:17;0.00;0.00;0.00;0.00;0.00;0.00;0.00;0.00;0.00;1.50
40102;SPS30;25814;48.550;9.108;2023-06-10T02:00:43;0.00;0.00;0.00;0.00;0.00;0.00;0.00;0.00;0.00;1.50
40102;SPS30;25814;48.550;9.108;2023-06-10T02:03:09;0.00;0.00;0.00;0.00;0.00;0.00;0.00;0.00;0.00;1.50
40102;SPS30;25814;48.550;9.108;2023-06-10T02:05:35;0.00;0.00;0.00;0.00;0.00;0.00;0.00;0.00;0.00;1.50
40102;SPS30;25814;48.550;9.108;2023-06-10T02:08:02;0.00;0.00;0.00;0.00;0.00;0.00;0.00;0.00;0.00;1.50
40102;SPS30;25814;48.550;9.108;2023-06-10T02:10:28;0.00;0.00;0.00;0.00;0.00;0.00;0.00;0.00;0.00;1.50
40102;SPS30;25814;48.550;9.108;2023-06-10T02:12:54;0.00;0.00;0.00;0.00;0.00;0.00;0.00;0.00;0.00;1.50
40102;SPS30;25814;48.550;9.108;2023-06-10T02:15:20;0.00;0.00;0.00;0.00;0.00;0.00;0.00;0.00;0.00;1.50
40102;SPS30;25814;48.550;9.108;2023-06-10T02:17:47;0.00;0.00;0.00;0.00;0.00;0.00;0.00;0.00;0.00;1.50
40102;SPS30;25814;48.550;9.108;2023-06-10T02:20:16;0.00;0.00;0.00;0.00;0.00;0.00;0.00;0.00;0.00;1.50
40102;SPS30;25814;48.550;9.108;2023-06-10T02:22:42;0.00;0.00;0.00;0.00;0.00;0.00;0.00;0.00;0.00;1.50
40102;SPS30;25814;48.550;9.108;2023-06-10T02:25:08;0.00;0.00;0.00;0.00;0.00;0.00;0.00;0.00;0.00;1.50
40102;SPS30;25814;48.550;9.108;2023-06-10T02:27:35;0.00;0.00;0.00;0.00;0.00;0.00;0.00;0.00;0.00;1.50
40102;SPS30;25814;48.550;9.108;2023-06-10T02:30:01;0.00;0.00;0.00;0.00;0.00;0.00;0.00;0.00;0.00;1.50
40102;SPS30;25814;48.550;9.108;2023-06-10T02:32:27;0.00;0.00;0.00;0.00;0.00;0.00;0.00;0.00;0.00;1.50
40102;SPS30;25814;48.550;9.108;2023-06-10T02:34:54;0.00;0.00;0.00;0.00;0.00;0.00;0.00;0.00;0.00;1.50
40102;SPS30;25814;48.550;9.108;2023-06-10T02:37:20;0.00;0.00;0.00;0.00;0.00;0.00;0.00;0.00;0.00;1.50
40102;SPS30;25814;48.550;9.108;2023-06-10T02:39:47;0.00;0.00;0.00;0.00;0.00;0.00;0.00;0.00;0.00;1.50
40102;SPS30;25814;48.550;9.108;2023-06-10T02:42:13;0.00;0.00;0.00;0.00;0.00;0.00;0.00;0.00;0.00;1.50
40102;SPS30;25814;48.550;9.108;2023-06-10T02:44:39;0.00;0.00;0.00;0.00;0.00;0.00;0.00;0.00;0.00;1.50
40102;SPS30;25814;48.550;9.108;2023-06-10T02:47:05;0.00;0.00;0.00;0.00;0.00;0.00;0.00;0.00;0.00;1.50
40102;SPS30;25814;48.550;9.108;2023-06-10T02:49:31;0.00;0.00;0.00;0.00;0.00;0.00;0.00;0.00;0.00;1.50
40102;SPS30;25814;48.550;9.108;2023-06-10T02:51:58;0.00;0.00;0.00;0.00;0.00;0.00;0.00;0.00;0.00;1.50
40102;SPS30;25814;48.550;9.108;2023-06-10T02:54:24;0.00;0.00;0.00;0.00;0.00;0.00;0.00;0.00;0.00;1.50
40102;SPS30;25814;48.550;9.108;2023-06-10T02:56:51;0.00;0.00;0.00;0.00;0.00;0.00;0.00;0.00;0.00;1.50
40102;SPS30;25814;48.550;9.108;2023-06-10T02:59:18;0.00;0.00;0.00;0.00;0.00;0.00;0.00;0.00;0.00;1.50
40102;SPS30;25814;48.550;9.108;2023-06-10T03:01:45;0.00;0.00;0.00;0.00;0.00;0.00;0.00;0.00;0.00;1.50
40102;SPS30;25814;48.550;9.108;2023-06-10T03:04:12;0.00;0.00;0.00;0.00;0.00;0.00;0.00;0.00;0.00;1.50
40102;SPS30;25814;48.550;9.108;2023-06-10T03:06:39;0.00;0.00;0.00;0.00;0.00;0.00;0.00;0.00;0.00;1.50
40102;SPS30;25814;48.550;9.108;2023-06-10T03:09:06;0.00;0.00;0.00;0.00;0.00;0.00;0.00;0.00;0.00;1.50
40102;SPS30;25814;48.550;9.108;2023-06-10T03:11:32;0.00;0.00;0.00;0.00;0.00;0.00;0.00;0.00;0.00;1.50
40102;SPS30;25814;48.550;9.108;2023-06-10T03:13:59;0.00;0.00;0.00;0.00;0.00;0.00;0.00;0.00;0.00;1.50
40102;SPS30;25814;48.550;9.108;2023-06-10T03:16:25;0.00;0.00;0.00;0.00;0.00;0.00;0.00;0.00;0.00;1.50
40102;SPS30;25814;48.550;9.108;2023-06-10T03:18:52;0.00;0.00;0.00;0.00;0.00;0.00;0.00;0.00;0.00;1.50
40102;SPS30;25814;48.550;9.108;2023-06-10T03:21:19;0.00;0.00;0.00;0.00;0.00;0.00;0.00;0.00;0.00;1.50
40102;SPS30;25814;48.550;9.108;2023-06-10T03:23:46;0.00;0.00;0.00;0.00;0.00;0.00;0.00;0.00;0.00;1.50
40102;SPS30;25814;48.550;9.108;2023-06-10T03:26:12;0.00;0.00;0.00;0.00;0.00;0.00;0.00;0.00;0.00;1.50
40102;SPS30;25814;48.550;9.108;2023-06-10T03:28:39;0.00;0.00;0.00;0.00;0.00;0.00;0.00;0.00;0.00;1.50
40102;SPS30;25814;48.550;9.108;2023-06-10T03:31:05;0.00;0.00;0.00;0.00;0.00;0.00;0.00;0.00;0.00;1.50
40102;SPS30;25814;48.550;9.108;2023-06-10T03:33:32;0.00;0.00;0.00;0.00;0.00;0.00;0.00;0.00;0.00;1.50
40102;SPS30;25814;48.550;9.108;2023-06-10T03:35:59;0.00;0.00;0.00;0.00;0.00;0.00;0.00;0.00;0.00;1.50
40102;SPS30;25814;48.550;9.108;2023-06-10T03:38:25;0.00;0.00;0.00;0.00;0.00;0.00;0.00;0.00;0.00;1.50
40102;SPS30;25814;48.550;9.108;2023-06-10T03:40:51;0.00;0.00;0.00;0.00;0.00;0.00;0.00;0.00;0.00;1.50
40102;SPS30;25814;48.550;9.108;2023-06-10T03:43:17;0.00;0.00;0.00;0.00;0.00;0.00;0.00;0.00;0.00;1.50
40102;SPS30;25814;48.550;9.108;2023-06-10T03:45:43;0.00;0.00;0.00;0.00;0.00;0.00;0.00;0.00;0.00;1.50
40102;SPS30;25814;48.550;9.108;2023-06-10T03:48:10;0.00;0.00;0.00;0.00;0.00;0.00;0.00;0.00;0.00;1.50
40102;SPS30;25814;48.550;9.108;2023-06-10T03:50:36;0.00;0.00;0.00;0.00;0.00;0.00;0.00;0.00;0.00;1.50
40102;SPS30;25814;48.550;9.108;2023-06-10T03:53:02;0.00;0.00;0.00;0.00;0.00;0.00;0.00;0.00;0.00;1.50
40102;SPS30;25814;48.550;9.108;2023-06-10T03:55:28;0.00;0.00;0.00;0.00;0.00;0.00;0.00;0.00;0.00;1.50
40102;SPS30;25814;48.550;9.108;2023-06-10T03:57:56;0.00;0.00;0.00;0.00;0.00;0.00;0.00;0.00;0.00;1.50
40102;SPS30;25814;48.550;9.108;2023-06-10T04:00:23;0.00;0.00;0.00;0.00;0.00;0.00;0.00;0.00;0.00;1.50
40102;SPS30;25814;48.550;9.108;2023-06-10T04:02:49;0.00;0.00;0.00;0.00;0.00;0.00;0.00;0.00;0.00;1.50
40102;SPS30;25814;48.550;9.108;2023-06-10T04:05:16;0.00;0.00;0.00;0.00;0.00;0.00;0.00;0.00;0.00;1.50
40102;SPS30;25814;48.550;9.108;2023-06-10T04:07:46;0.00;0.00;0.00;0.00;0.00;0.00;0.00;0.00;0.00;1.50
40102;SPS30;25814;48.550;9.108;2023-06-10T04:10:13;0.00;0.00;0.00;0.00;0.00;0.00;0.00;0.00;0.00;1.50
40102;SPS30;25814;48.550;9.108;2023-06-10T04:12:40;0.00;0.00;0.00;0.00;0.00;0.00;0.00;0.00;0.00;1.50
40102;SPS30;25814;48.550;9.108;2023-06-10T04:15:07;0.00;0.00;0.00;0.00;0.00;0.00;0.00;0.00;0.00;1.50
40102;SPS30;25814;48.550;9.108;2023-06-10T04:17:34;0.00;0.00;0.00;0.00;0.00;0.00;0.00;0.00;0.00;1.50
40102;SPS30;25814;48.550;9.108;2023-06-10T04:20:00;0.00;0.00;0.00;0.00;0.00;0.00;0.00;0.00;0.00;1.50
40102;SPS30;25814;48.550;9.108;2023-06-10T04:22:28;0.00;0.00;0.00;0.00;0.00;0.00;0.00;0.00;0.00;1.50
40102;SPS30;25814;48.550;9.108;2023-06-10T04:24:55;0.00;0.00;0.00;0.00;0.00;0.00;0.00;0.00;0.00;1.50
40102;SPS30;25814;48.550;9.108;2023-06-10T04:27:21;0.00;0.00;0.00;0.00;0.00;0.00;0.00;0.00;0.00;1.50
40102;SPS30;25814;48.550;9.108;2023-06-10T04:29:47;0.00;0.00;0.00;0.00;0.00;0.00;0.00;0.00;0.00;1.50
40102;SPS30;25814;48.550;9.108;2023-06-10T04:32:13;0.00;0.00;0.00;0.00;0.00;0.00;0.00;0.00;0.00;1.50
40102;SPS30;25814;48.550;9.108;2023-06-10T04:34:39;0.00;0.00;0.00;0.00;0.00;0.00;0.00;0.00;0.00;1.50
40102;SPS30;25814;48.550;9.108;2023-06-10T04:37:06;0.00;0.00;0.00;0.00;0.00;0.00;0.00;0.00;0.00;1.50
40102;SPS30;25814;48.550;9.108;2023-06-10T04:39:32;0.00;0.00;0.00;0.00;0.00;0.00;0.00;0.00;0.00;1.50
40102;SPS30;25814;48.550;9.108;2023-06-10T04:41:58;0.00;0.00;0.00;0.00;0.00;0.00;0.00;0.00;0.00;1.50
40102;SPS30;25814;48.550;9.108;2023-06-10T04:44:25;0.00;0.00;0.00;0.00;0.00;0.00;0.00;0.00;0.00;1.50
40102;SPS30;25814;48.550;9.108;2023-06-10T04:46:51;0.00;0.00;0.00;0.00;0.00;0.00;0.00;0.00;0.00;1.50
40102;SPS30;25814;48.550;9.108;2023-06-10T04:49:17;0.00;0.00;0.00;0.00;0.00;0.00;0.00;0.00;0.00;1.50
40102;SPS30;25814;48.550;9.108;2023-06-10T04:51:44;0.00;0.00;0.00;0.00;0.00;0.00;0.00;0.00;0.00;1.50
40102;SPS30;25814;48.550;9.108;2023-06-10T04:54:10;0.00;0.00;0.00;0.00;0.00;0.00;0.00;0.00;0.00;1.50
40102;SPS30;25814;48.550;9.108;2023-06-10T04:56:36;0.00;0.00;0.00;0.00;0.00;0.00;0.00;0.00;0.00;1.50
40102;SPS30;25814;48.550;9.108;2023-06-10T04:59:02;0.00;0.00;0.00;0.00;0.00;0.00;0.00;0.00;0.00;1.50
40102;SPS30;25814;48.550;9.108;2023-06-10T05:01:29;0.00;0.00;0.00;0.00;0.00;0.00;0.00;0.00;0.00;1.50
40102;SPS30;25814;48.550;9.108;2023-06-10T05:03:55;0.00;0.00;0.00;0.00;0.00;0.00;0.00;0.00;0.00;1.50
40102;SPS30;25814;48.550;9.108;2023-06-10T05:06:21;0.00;0.00;0.00;0.00;0.00;0.00;0.00;0.00;0.00;1.50
40102;SPS30;25814;48.550;9.108;2023-06-10T05:08:47;0.00;0.00;0.00;0.00;0.00;0.00;0.00;0.00;0.00;1.50
40102;SPS30;25814;48.550;9.108;2023-06-10T05:11:14;0.00;0.00;0.00;0.00;0.00;0.00;0.00;0.00;0.00;1.50
40102;SPS30;25814;48.550;9.108;2023-06-10T05:13:41;0.00;0.00;0.00;0.00;0.00;0.00;0.00;0.00;0.00;1.50
40102;SPS30;25814;48.550;9.108;2023-06-10T05:16:09;0.00;0.00;0.00;0.00;0.00;0.00;0.00;0.00;0.00;1.50
40102;SPS30;25814;48.550;9.108;2023-06-10T05:18:35;0.00;0.00;0.00;0.00;0.00;0.00;0.00;0.00;0.00;1.50
40102;SPS30;25814;48.550;9.108;2023-06-10T05:21:02;0.00;0.00;0.00;0.00;0.00;0.00;0.00;0.00;0.00;1.50
40102;SPS30;25814;48.550;9.108;2023-06-10T05:23:28;0.00;0.00;0.00;0.00;0.00;0.00;0.00;0.00;0.00;1.50
40102;SPS30;25814;48.550;9.108;2023-06-10T05:25:54;0.00;0.00;0.00;0.00;0.00;0.00;0.00;0.00;0.00;1.50
40102;SPS30;25814;48.550;9.108;2023-06-10T05:28:20;0.00;0.00;0.00;0.00;0.00;0.00;0.00;0.00;0.00;1.50
40102;SPS30;25814;48.550;9.108;2023-06-10T05:30:46;0.00;0.00;0.00;0.00;0.00;0.00;0.00;0.00;0.00;1.50
40102;SPS30;25814;48.550;9.108;2023-06-10T05:33:13;0.00;0.00;0.00;0.00;0.00;0.00;0.00;0.00;0.00;1.50
40102;SPS30;25814;48.550;9.108;2023-06-10T05:35:39;0.00;0.00;0.00;0.00;0.00;0.00;0.00;0.00;0.00;1.50
40102;SPS30;25814;48.550;9.108;2023-06-10T05:38:05;0.00;0.00;0.00;0.00;0.00;0.00;0.00;0.00;0.00;1.50
40102;SPS30;25814;48.550;9.108;2023-06-10T05:40:32;0.00;0.00;0.00;0.00;0.00;0.00;0.00;0.00;0.00;1.50
40102;SPS30;25814;48.550;9.108;2023-06-10T05:42:58;0.00;0.00;0.00;0.00;0.00;0.00;0.00;0.00;0.00;1.50
40102;SPS30;25814;48.550;9.108;2023-06-10T05:45:24;0.00;0.00;0.00;0.00;0.00;0.00;0.00;0.00;0.00;1.50
40102;SPS30;25814;48.550;9.108;2023-06-10T05:47:50;0.00;0.00;0.00;0.00;0.00;0.00;0.00;0.00;0.00;1.50
40102;SPS30;25814;48.550;9.108;2023-06-10T05:50:17;0.00;0.00;0.00;0.00;0.00;0.00;0.00;0.00;0.00;1.50
40102;SPS30;25814;48.550;9.108;2023-06-10T05:52:43;0.00;0.00;0.00;0.00;0.00;0.00;0.00;0.00;0.00;1.50
40102;SPS30;25814;48.550;9.108;2023-06-10T05:55:09;0.00;0.00;0.00;0.00;0.00;0.00;0.00;0.00;0.00;1.50
40102;SPS30;25814;48.550;9.108;2023-06-10T05:57:36;0.00;0.00;0.00;0.00;0.00;0.00;0.00;0.00;0.00;1.50
40102;SPS30;25814;48.550;9.108;2023-06-10T06:00:02;0.00;0.00;0.00;0.00;0.00;0.00;0.00;0.00;0.00;1.50
40102;SPS30;25814;48.550;9.108;2023-06-10T06:02:29;0.00;0.00;0.00;0.00;0.00;0.00;0.00;0.00;0.00;1.50
40102;SPS30;25814;48.550;9.108;2023-06-10T06:04:55;0.00;0.00;0.00;0.00;0.00;0.00;0.00;0.00;0.00;1.50
40102;SPS30;25814;48.550;9.108;2023-06-10T06:07:21;0.00;0.00;0.00;0.00;0.00;0.00;0.00;0.00;0.00;1.50
40102;SPS30;25814;48.550;9.108;2023-06-10T06:09:48;0.00;0.00;0.00;0.00;0.00;0.00;0.00;0.00;0.00;1.50
40102;SPS30;25814;48.550;9.108;2023-06-10T06:12:14;0.00;0.00;0.00;0.00;0.00;0.00;0.00;0.00;0.00;1.50
40102;SPS30;25814;48.550;9.108;2023-06-10T06:14:40;0.00;0.00;0.00;0.00;0.00;0.00;0.00;0.00;0.00;1.50
40102;SPS30;25814;48.550;9.108;2023-06-10T06:17:06;0.00;0.00;0.00;0.00;0.00;0.00;0.00;0.00;0.00;1.50
40102;SPS30;25814;48.550;9.108;2023-06-10T06:19:33;0.00;0.00;0.00;0.00;0.00;0.00;0.00;0.00;0.00;1.50
40102;SPS30;25814;48.550;9.108;2023-06-10T06:21:59;0.00;0.00;0.00;0.00;0.00;0.00;0.00;0.00;0.00;1.50
40102;SPS30;25814;48.550;9.108;2023-06-10T06:24:25;0.00;0.00;0.00;0.00;0.00;0.00;0.00;0.00;0.00;1.50
40102;SPS30;25814;48.550;9.108;2023-06-10T06:26:52;0.00;0.00;0.00;0.00;0.00;0.00;0.00;0.00;0.00;1.50
40102;SPS30;25814;48.550;9.108;2023-06-10T06:29:18;0.00;0.00;0.00;0.00;0.00;0.00;0.00;0.00;0.00;1.50
40102;SPS30;25814;48.550;9.108;2023-06-10T06:31:44;0.00;0.00;0.00;0.00;0.00;0.00;0.00;0.00;0.00;1.50
40102;SPS30;25814;48.550;9.108;2023-06-10T06:34:10;0.00;0.00;0.00;0.00;0.00;0.00;0.00;0.00;0.00;1.50
40102;SPS30;25814;48.550;9.108;2023-06-10T06:36:36;0.00;0.00;0.00;0.00;0.00;0.00;0.00;0.00;0.00;1.50
40102;SPS30;25814;48.550;9.108;2023-06-10T06:39:03;0.00;0.00;0.00;0.00;0.00;0.00;0.00;0.00;0.00;1.50
40102;SPS30;25814;48.550;9.108;2023-06-10T06:41:29;0.00;0.00;0.00;0.00;0.00;0.00;0.00;0.00;0.00;1.50
40102;SPS30;25814;48.550;9.108;2023-06-10T06:43:55;0.00;0.00;0.00;0.00;0.00;0.00;0.00;0.00;0.00;1.50
40102;SPS30;25814;48.550;9.108;2023-06-10T06:46:21;0.00;0.00;0.00;0.00;0.00;0.00;0.00;0.00;0.00;1.50
40102;SPS30;25814;48.550;9.108;2023-06-10T06:48:48;0.00;0.00;0.00;0.00;0.00;0.00;0.00;0.00;0.00;1.50
40102;SPS30;25814;48.550;9.108;2023-06-10T06:51:14;0.00;0.00;0.00;0.00;0.00;0.00;0.00;0.00;0.00;1.50
40102;SPS30;25814;48.550;9.108;2023-06-10T06:53:40;0.00;0.00;0.00;0.00;0.00;0.00;0.00;0.00;0.00;1.50
40102;SPS30;25814;48.550;9.108;2023-06-10T06:56:12;0.00;0.00;0.00;0.00;0.00;0.00;0.00;0.00;0.00;1.50
40102;SPS30;25814;48.550;9.108;2023-06-10T06:58:39;0.00;0.00;0.00;0.00;0.00;0.00;0.00;0.00;0.00;1.50
40102;SPS30;25814;48.550;9.108;2023-06-10T07:01:06;0.00;0.00;0.00;0.00;0.00;0.00;0.00;0.00;0.00;1.50
40102;SPS30;25814;48.550;9.108;2023-06-10T07:03:32;0.00;0.00;0.00;0.00;0.00;0.00;0.00;0.00;0.00;1.50
40102;SPS30;25814;48.550;9.108;2023-06-10T07:05:59;0.00;0.00;0.00;0.00;0.00;0.00;0.00;0.00;0.00;1.50
40102;SPS30;25814;48.550;9.108;2023-06-10T07:08:25;0.00;0.00;0.00;0.00;0.00;0.00;0.00;0.00;0.00;1.50
40102;SPS30;25814;48.550;9.108;2023-06-10T07:10:51;0.00;0.00;0.00;0.00;0.00;0.00;0.00;0.00;0.00;1.50
40102;SPS30;25814;48.550;9.108;2023-06-10T07:13:18;0.00;0.00;0.00;0.00;0.00;0.00;0.00;0.00;0.00;1.50
40102;SPS30;25814;48.550;9.108;2023-06-10T07:15:45;0.00;0.00;0.00;0.00;0.00;0.00;0.00;0.00;0.00;1.50
40102;SPS30;25814;48.550;9.108;2023-06-10T07:18:11;0.00;0.00;0.00;0.00;0.00;0.00;0.00;0.00;0.00;1.50
40102;SPS30;25814;48.550;9.108;2023-06-10T07:20:37;0.00;0.00;0.00;0.00;0.00;0.00;0.00;0.00;0.00;1.50
40102;SPS30;25814;48.550;9.108;2023-06-10T07:23:03;0.00;0.00;0.00;0.00;0.00;0.00;0.00;0.00;0.00;1.50
40102;SPS30;25814;48.550;9.108;2023-06-10T07:25:29;0.00;0.00;0.00;0.00;0.00;0.00;0.00;0.00;0.00;1.50
40102;SPS30;25814;48.550;9.108;2023-06-10T07:27:56;0.00;0.00;0.00;0.00;0.00;0.00;0.00;0.00;0.00;1.50
40102;SPS30;25814;48.550;9.108;2023-06-10T07:30:22;0.00;0.00;0.00;0.00;0.00;0.00;0.00;0.00;0.00;1.50
40102;SPS30;25814;48.550;9.108;2023-06-10T07:32:48;0.00;0.00;0.00;0.00;0.00;0.00;0.00;0.00;0.00;1.50
40102;SPS30;25814;48.550;9.108;2023-06-10T07:35:16;0.00;0.00;0.00;0.00;0.00;0.00;0.00;0.00;0.00;1.50
40102;SPS30;25814;48.550;9.108;2023-06-10T07:37:42;0.00;0.00;0.00;0.00;0.00;0.00;0.00;0.00;0.00;1.50
40102;SPS30;25814;48.550;9.108;2023-06-10T07:40:09;0.00;0.00;0.00;0.00;0.00;0.00;0.00;0.00;0.00;1.50
40102;SPS30;25814;48.550;9.108;2023-06-10T07:42:35;0.00;0.00;0.00;0.00;0.00;0.00;0.00;0.00;0.00;1.50
40102;SPS30;25814;48.550;9.108;2023-06-10T07:45:03;0.00;0.00;0.00;0.00;0.00;0.00;0.00;0.00;0.00;1.50
40102;SPS30;25814;48.550;9.108;2023-06-10T07:47:33;0.00;0.00;0.00;0.00;0.00;0.00;0.00;0.00;0.00;1.50
40102;SPS30;25814;48.550;9.108;2023-06-10T07:50:00;0.00;0.00;0.00;0.00;0.00;0.00;0.00;0.00;0.00;1.50
40102;SPS30;25814;48.550;9.108;2023-06-10T07:52:26;0.00;0.00;0.00;0.00;0.00;0.00;0.00;0.00;0.00;1.50
40102;SPS30;25814;48.550;9.108;2023-06-10T07:54:53;0.00;0.00;0.00;0.00;0.00;0.00;0.00;0.00;0.00;1.50
40102;SPS30;25814;48.550;9.108;2023-06-10T07:57:20;0.00;0.00;0.00;0.00;0.00;0.00;0.00;0.00;0.00;1.50
40102;SPS30;25814;48.550;9.108;2023-06-10T07:59:46;0.00;0.00;0.00;0.00;0.00;0.00;0.00;0.00;0.00;1.50
40102;SPS30;25814;48.550;9.108;2023-06-10T08:02:12;0.00;0.00;0.00;0.00;0.00;0.00;0.00;0.00;0.00;1.50
40102;SPS30;25814;48.550;9.108;2023-06-10T08:04:38;0.00;0.00;0.00;0.00;0.00;0.00;0.00;0.00;0.00;1.50
40102;SPS30;25814;48.550;9.108;2023-06-10T08:07:05;0.00;0.00;0.00;0.00;0.00;0.00;0.00;0.00;0.00;1.50
40102;SPS30;25814;48.550;9.108;2023-06-10T08:09:31;0.00;0.00;0.00;0.00;0.00;0.00;0.00;0.00;0.00;1.50
40102;SPS30;25814;48.550;9.108;2023-06-10T08:11:57;0.00;0.00;0.00;0.00;0.00;0.00;0.00;0.00;0.00;1.50
40102;SPS30;25814;48.550;9.108;2023-06-10T08:14:23;0.00;0.00;0.00;0.00;0.00;0.00;0.00;0.00;0.00;1.50
40102;SPS30;25814;48.550;9.108;2023-06-10T08:16:49;0.00;0.00;0.00;0.00;0.00;0.00;0.00;0.00;0.00;1.50
40102;SPS30;25814;48.550;9.108;2023-06-10T08:19:16;0.00;0.00;0.00;0.00;0.00;0.00;0.00;0.00;0.00;1.50
40102;SPS30;25814;48.550;9.108;2023-06-10T08:21:42;0.00;0.00;0.00;0.00;0.00;0.00;0.00;0.00;0.00;1.50
40102;SPS30;25814;48.550;9.108;2023-06-10T08:24:09;0.00;0.00;0.00;0.00;0.00;0.00;0.00;0.00;0.00;1.50
40102;SPS30;25814;48.550;9.108;2023-06-10T08:26:35;0.00;0.00;0.00;0.00;0.00;0.00;0.00;0.00;0.00;1.50
40102;SPS30;25814;48.550;9.108;2023-06-10T08:29:01;0.00;0.00;0.00;0.00;0.00;0.00;0.00;0.00;0.00;1.50
40102;SPS30;25814;48.550;9.108;2023-06-10T08:31:27;0.00;0.00;0.00;0.00;0.00;0.00;0.00;0.00;0.00;1.50
40102;SPS30;25814;48.550;9.108;2023-06-10T08:33:54;0.00;0.00;0.00;0.00;0.00;0.00;0.00;0.00;0.00;1.50
40102;SPS30;25814;48.550;9.108;2023-06-10T08:36:20;0.00;0.00;0.00;0.00;0.00;0.00;0.00;0.00;0.00;1.50
40102;SPS30;25814;48.550;9.108;2023-06-10T08:38:46;0.00;0.00;0.00;0.00;0.00;0.00;0.00;0.00;0.00;1.50
40102;SPS30;25814;48.550;9.108;2023-06-10T08:41:14;0.00;0.00;0.00;0.00;0.00;0.00;0.00;0.00;0.00;1.50
40102;SPS30;25814;48.550;9.108;2023-06-10T08:43:48;0.00;0.00;0.00;0.00;0.00;0.00;0.00;0.00;0.00;1.50
40102;SPS30;25814;48.550;9.108;2023-06-10T08:46:34;0.00;0.00;0.00;0.00;0.00;0.00;0.00;0.00;0.00;1.50
40102;SPS30;25814;48.550;9.108;2023-06-10T08:49:02;0.00;0.00;0.00;0.00;0.00;0.00;0.00;0.00;0.00;1.50
40102;SPS30;25814;48.550;9.108;2023-06-10T08:51:33;0.00;0.00;0.00;0.00;0.00;0.00;0.00;0.00;0.00;1.50
40102;SPS30;25814;48.550;9.108;2023-06-10T08:54:08;0.00;0.00;0.00;0.00;0.00;0.00;0.00;0.00;0.00;1.50
40102;SPS30;25814;48.550;9.108;2023-06-10T08:56:44;0.00;0.00;0.00;0.00;0.00;0.00;0.00;0.00;0.00;1.50
40102;SPS30;25814;48.550;9.108;2023-06-10T08:59:16;0.00;0.00;0.00;0.00;0.00;0.00;0.00;0.00;0.00;1.50
40102;SPS30;25814;48.550;9.108;2023-06-10T09:01:44;0.00;0.00;0.00;0.00;0.00;0.00;0.00;0.00;0.00;1.50
40102;SPS30;25814;48.550;9.108;2023-06-10T09:04:11;107.86;100.77;65.34;20.39;168.60;167.40;159.87;118.24;49.59;1.46
40102;SPS30;25814;48.550;9.108;2023-06-10T09:06:38;0.02;0.02;0.02;0.01;0.05;0.05;0.05;0.04;0.02;1.25
40102;SPS30;25814;48.550;9.108;2023-06-10T09:09:06;3365.57;3172.91;2209.59;963.92;7854.47;7821.49;7615.66;6463.87;4099.91;1.11
40102;SPS30;25814;48.550;9.108;2023-06-10T09:11:33;4053.92;3834.81;2739.23;1310.25;10641.44;10603.67;10369.04;9048.65;6100.25;0.99
40102;SPS30;25814;48.550;9.108;2023-06-10T09:13:59;5020.33;4781.93;3589.94;2002.08;16181.19;16139.38;15882.67;14417.87;10509.83;0.90
40102;SPS30;25814;48.550;9.108;2023-06-10T09:16:25;19771.68;18739.00;13575.64;6804.76;55179.73;55000.94;53893.59;47639.89;32979.60;1.01
40102;SPS30;25814;48.550;9.108;2023-06-10T09:18:52;23143.38;21780.85;14968.20;6194.52;50577.63;50345.21;48891.07;40776.01;24813.84;1.15
40102;SPS30;25814;48.550;9.108;2023-06-10T09:21:21;18997.34;17956.00;12749.32;5972.72;48543.34;48364.16;47249.74;40987.07;27283.62;1.01
40102;SPS30;25814;48.550;9.108;2023-06-10T09:23:51;13435.00;12715.96;9120.79;4424.35;35916.01;35791.91;35021.65;30682.64;20855.89;1.00
40102;SPS30;25814;48.550;9.108;2023-06-10T09:26:17;13454.78;12719.00;9040.12;4250.26;34539.74;34413.10;33625.60;29199.13;19480.11;1.05
40102;SPS30;25814;48.550;9.108;2023-06-10T09:28:44;19537.84;18393.09;12669.39;5293.01;43200.91;43005.52;41783.59;34961.32;21442.92;1.15
40102;SPS30;25814;48.550;9.108;2023-06-10T09:31:16;9924.73;9413.71;6858.63;3500.43;28368.35;28279.72;27731.42;24630.27;17214.00;1.13
40102;SPS30;25814;48.550;9.108;2023-06-10T09:33:44;4644.41;4339.54;2815.19;881.07;7284.91;7233.54;6909.43;5118.37;2160.07;1.44
40102;SPS30;25814;48.550;9.108;2023-06-10T09:36:11;14341.82;13472.10;9123.54;3546.65;29031.47;28883.63;27956.45;22796.48;13102.45;1.29
40102;SPS30;25814;48.550;9.108;2023-06-10T09:38:37;52.02;48.53;31.09;9.02;74.89;74.30;70.60;50.16;17.60;1.50